Time;durP1;ratioP1;P1;durP2;ratioP2;P2;SDS_P1;SDS_P2;PMS_P1;PMS_P2;Temp;Humidity;BMP_temperature;BMP_pressure;BME280_temperature;BME280_humidity;BME280_pressure;Samples;Min_cycle;Max_cycle;Signal;HPM_P1;HPM_P2
2024/01/18 07:01:27;;;;;;;0.50;0.50;;;1.10;99.90;3.70;99497.00;;;;6198421;22;1433130;-77
2024/01/18 07:03:53;;;;;;;1.33;1.33;;;0.90;99.90;3.90;99481.00;;;;6217692;23;20461;-77
2024/01/18 07:06:46;;;;;;;0.50;0.50;;;0.90;99.90;3.80;99481.00;;;;6216066;23;20177;-76
2024/01/18 07:09:12;;;;;;;0.50;0.50;;;0.80;99.90;3.90;99510.00;;;;6215772;23;20142;-75
2024/01/18 07:11:47;;;;;;;0.40;0.40;;;0.70;99.90;3.90;99519.00;;;;6215959;23;20182;-76
2024/01/18 07:14:24;;;;;;;0.50;0.50;;;0.90;99.90;3.80;99507.00;;;;6214969;23;20555;-74
2024/01/18 07:16:59;;;;;;;0.50;0.50;;;1.00;99.90;3.70;99516.00;;;;6215256;23;20173;-76
2024/01/18 07:19:30;;;;;;;0.50;0.50;;;0.80;99.90;3.60;99513.00;;;;6215727;23;20157;-76
2024/01/18 07:22:04;;;;;;;0.73;0.73;;;0.70;99.90;3.40;99521.00;;;;6215652;23;20162;-75
2024/01/18 07:24:33;;;;;;;0.50;0.50;;;0.60;99.90;3.50;99510.00;;;;6215142;23;20158;-76
2024/01/18 07:27:09;;;;;;;0.40;0.40;;;0.60;99.90;3.80;99520.00;;;;6216090;23;20207;-73
2024/01/18 07:29:40;;;;;;;1.27;1.27;;;0.60;99.90;3.80;99527.00;;;;6217115;23;20162;-76
2024/01/18 07:32:25;;;;;;;0.63;0.63;;;0.80;99.90;3.60;99512.00;;;;6216199;23;20161;-76
2024/01/18 07:34:50;;;;;;;0.47;0.47;;;0.70;99.90;3.20;99527.00;;;;6215609;23;20582;-74
2024/01/18 07:37:22;;;;;;;0.50;0.50;;;0.50;99.90;3.40;99540.00;;;;6217347;23;20196;-74
2024/01/18 07:39:56;;;;;;;0.50;0.50;;;0.40;99.90;3.40;99550.00;;;;6215723;23;20213;-67
2024/01/18 07:42:21;;;;;;;0.50;0.50;;;0.40;99.90;3.40;99479.00;;;;6215249;23;20170;-76
2024/01/18 07:45:02;;;;;;;0.50;0.50;;;0.40;99.90;3.50;99543.00;;;;6215375;23;20441;-77
2024/01/18 07:47:49;;;;;;;0.60;0.60;;;0.50;99.90;3.70;99563.00;;;;6215177;23;20225;-76
2024/01/18 07:50:20;;;;;;;0.50;0.50;;;0.50;99.90;3.90;99483.00;;;;6212416;23;20245;-74
2024/01/18 07:52:52;;;;;;;0.50;0.50;;;0.70;99.90;3.60;99569.00;;;;6215381;23;20149;-73
2024/01/18 07:55:25;;;;;;;0.57;0.57;;;0.60;99.90;3.50;99572.00;;;;6215065;23;20139;-76
2024/01/18 07:57:58;;;;;;;0.50;0.50;;;0.60;99.90;3.40;99570.00;;;;6217407;23;20177;-76
2024/01/18 08:00:33;;;;;;;0.63;0.63;;;0.60;99.90;3.10;99568.00;;;;6215008;23;20507;-78
2024/01/18 08:03:07;;;;;;;0.40;0.40;;;0.50;99.90;2.80;99564.00;;;;6190505;23;20178;-78
2024/01/18 08:05:38;;;;;;;0.40;0.40;;;0.40;99.90;3.20;99574.00;;;;6215200;23;20220;-77
2024/01/18 08:08:15;;;;;;;0.80;0.80;;;0.30;99.90;3.00;99575.00;;;;6215228;23;20516;-77
2024/01/18 08:10:41;;;;;;;1.07;1.07;;;0.40;99.90;4.10;99593.00;;;;6214908;23;20162;-77
2024/01/18 08:13:30;;;;;;;0.60;0.60;;;0.80;99.90;4.10;99593.00;;;;6215313;23;20177;-77
2024/01/18 08:16:16;;;;;;;0.50;0.50;;;1.10;99.90;4.50;99603.00;;;;6197749;23;20166;-74
2024/01/18 08:18:48;;;;;;;0.50;0.50;;;1.30;99.90;4.10;99593.00;;;;6217038;23;20138;-74
2024/01/18 08:21:27;;;;;;;0.50;0.50;;;1.20;99.90;4.40;99611.00;;;;6215407;23;20153;-72
2024/01/18 08:23:56;;;;;;;0.50;0.50;;;1.30;99.90;4.30;99620.00;;;;6215067;23;20268;-71
2024/01/18 08:26:22;;;;;;;1.30;1.30;;;1.30;99.90;4.60;99623.00;;;;6213134;23;20870;-77
2024/01/18 08:28:48;;;;;;;0.80;0.80;;;1.40;99.90;4.20;99631.00;;;;6213283;23;20177;-74
2024/01/18 08:31:22;;;;;;;0.50;0.50;;;1.40;99.90;4.30;99570.00;;;;6213500;23;20522;-75
2024/01/18 08:33:57;;;;;;;0.40;0.40;;;1.40;99.90;4.60;99642.00;;;;6216712;23;20147;-75
2024/01/18 08:36:23;;;;;;;0.40;0.40;;;1.60;99.90;4.80;99646.00;;;;6214853;23;20212;-73
2024/01/18 08:38:50;;;;;;;0.43;0.43;;;1.60;99.90;4.90;99661.00;;;;6215051;23;20245;-75
2024/01/18 08:41:17;;;;;;;0.50;0.50;;;1.70;99.90;4.80;99644.00;;;;6207339;23;20142;-74
2024/01/18 08:43:48;;;;;;;0.40;0.40;;;1.80;99.90;4.60;99679.00;;;;6210517;23;20182;-71
2024/01/18 08:46:14;;;;;;;0.60;0.60;;;1.70;99.90;4.60;99678.00;;;;6189182;23;20168;-73
2024/01/18 08:48:41;;;;;;;0.50;0.50;;;1.70;99.90;5.50;99627.00;;;;6214157;23;20143;-72
2024/01/18 08:51:13;;;;;;;0.50;0.50;;;2.10;99.90;5.40;99632.00;;;;6212218;23;20158;-71
2024/01/18 08:53:43;;;;;;;0.50;0.50;;;2.30;99.90;5.40;99699.00;;;;6209254;23;20204;-77
2024/01/18 08:56:10;;;;;;;1.23;1.23;;;2.30;99.90;5.00;99702.00;;;;6205918;23;20146;-75
2024/01/18 08:58:36;;;;;;;0.40;0.40;;;2.20;99.90;5.00;99671.00;;;;6209733;23;20329;-73
2024/01/18 09:01:05;;;;;;;0.50;0.50;;;2.10;99.90;5.50;99693.00;;;;6207364;23;20170;-73
2024/01/18 09:03:31;;;;;;;0.40;0.40;;;2.30;99.90;5.30;99696.00;;;;6207080;23;20249;-73
2024/01/18 09:05:57;;;;;;;0.50;0.50;;;2.40;99.90;5.70;99713.00;;;;6208656;23;20173;-72
2024/01/18 09:08:23;;;;;;;0.40;0.40;;;2.50;99.90;5.80;99699.00;;;;6207693;23;20249;-76
2024/01/18 09:10:52;;;;;;;0.50;0.50;;;2.60;99.90;5.80;99713.00;;;;6207327;23;20624;-76
2024/01/18 09:13:19;;;;;;;0.40;0.40;;;2.60;99.90;6.10;99714.00;;;;6209265;23;20142;-74
2024/01/18 09:15:46;;;;;;;0.50;0.50;;;2.80;99.90;6.00;99715.00;;;;6211171;23;20138;-75
2024/01/18 09:18:17;;;;;;;0.50;0.50;;;3.00;99.90;5.90;99719.00;;;;6211541;23;20159;-73
2024/01/18 09:20:58;;;;;;;0.40;0.40;;;3.00;99.90;6.30;99729.00;;;;6209805;23;20162;-74
2024/01/18 09:23:26;;;;;;;0.40;0.40;;;3.00;99.90;6.40;99735.00;;;;6212061;23;20181;-75
2024/01/18 09:25:52;;;;;;;0.50;0.50;;;3.20;99.90;6.40;99739.00;;;;6213506;23;20597;-75
2024/01/18 09:28:19;;;;;;;0.40;0.40;;;3.30;99.90;6.60;99760.00;;;;6214616;23;20143;-75
2024/01/18 09:30:45;;;;;;;0.40;0.40;;;3.40;99.90;6.80;99748.00;;;;6212914;23;20166;-73
2024/01/18 09:33:11;;;;;;;0.40;0.40;;;3.60;99.90;7.20;99696.00;;;;6212905;23;20156;-75
2024/01/18 09:35:42;;;;;;;0.50;0.50;;;3.80;99.90;7.20;99769.00;;;;6212934;23;20205;-74
2024/01/18 09:38:14;;;;;;;0.50;0.50;;;4.00;99.90;7.10;99764.00;;;;6187937;23;20151;-75
2024/01/18 09:40:40;;;;;;;0.30;0.30;;;4.10;99.90;7.40;99777.00;;;;6212846;23;20155;-75
2024/01/18 09:43:10;;;;;;;0.40;0.40;;;4.30;99.90;7.30;99786.00;;;;6212437;23;20491;-75
2024/01/18 09:45:40;;;;;;;0.40;0.40;;;4.30;99.90;7.40;99787.00;;;;6212972;23;20157;-76
2024/01/18 09:48:07;;;;;;;0.40;0.40;;;4.40;99.90;8.20;99793.00;;;;6211642;23;20577;-75
2024/01/18 09:50:43;;;;;;;0.37;0.37;;;4.80;99.90;8.50;99795.00;;;;6212879;23;20187;-83
2024/01/18 09:53:11;;;;;;;0.40;0.40;;;5.10;99.90;9.10;99806.00;;;;6209350;23;20205;-77
2024/01/18 09:55:41;;;;;;;0.40;0.40;;;5.60;99.90;9.60;99774.00;;;;6212981;23;20171;-85
2024/01/18 09:58:13;;;;;;;0.40;0.40;;;6.10;99.90;9.90;99842.00;;;;6212217;23;20233;-82
2024/01/18 10:00:57;;;;;;;0.30;0.30;;;6.50;99.90;10.20;99880.00;;;;6186300;23;20190;-80
2024/01/18 10:03:30;;;;;;;0.40;0.40;;;6.90;99.90;10.70;99892.00;;;;6213260;23;20550;-79
2024/01/18 10:05:56;;;;;;;0.30;0.30;;;7.30;99.90;11.30;99901.00;;;;6208544;23;20289;-75
2024/01/18 10:08:23;;;;;;;0.30;0.30;;;7.70;99.90;11.60;99913.00;;;;6186557;23;20185;-76
2024/01/18 10:10:49;;;;;;;0.73;0.73;;;8.10;99.90;11.80;99941.00;;;;6212366;23;20220;-77
2024/01/18 10:13:14;;;;;;;0.30;0.30;;;8.30;99.90;11.90;99969.00;;;;6212191;23;20543;-77
2024/01/18 10:15:43;;;;;;;0.73;0.73;;;8.50;99.90;12.60;99901.00;;;;6186767;23;20171;-75
2024/01/18 10:18:09;;;;;;;0.20;0.20;;;8.90;99.90;12.70;99969.00;;;;6211268;23;20265;-75
2024/01/18 10:20:41;;;;;;;0.93;0.93;;;9.10;99.90;13.00;99968.00;;;;6213465;23;20183;-78
2024/01/18 10:33:29;;;;;;;0.10;0.10;;;6.70;99.90;9.80;99850.00;;;;5067838;28;20618;-75
2024/01/18 10:35:55;;;;;;;0.30;0.30;;;7.00;99.90;11.20;99932.00;;;;5048181;28;20220;-75
2024/01/18 10:38:29;;;;;;;0.20;0.20;;;7.80;99.90;12.30;99922.00;;;;5048337;28;20715;-74
2024/01/18 10:40:57;;;;;;;0.20;0.20;;;8.60;99.90;12.40;99991.00;;;;5032483;28;20195;-76
2024/01/18 10:43:33;;;;;;;0.10;0.10;;;8.90;99.90;12.40;99995.00;;;;5028750;28;20200;-76
2024/01/18 10:46:10;;;;;;;0.27;0.27;;;9.00;99.90;12.50;100009.00;;;;5038893;28;20719;-76
2024/01/18 10:48:36;;;;;;;0.20;0.20;;;9.10;99.90;12.70;100009.00;;;;5041358;28;20335;-76
2024/01/18 10:51:07;;;;;;;0.10;0.10;;;9.10;99.90;12.70;99965.00;;;;5047903;28;20209;-76
2024/01/18 10:53:41;;;;;;;0.17;0.17;;;9.20;99.90;12.50;100027.00;;;;5046700;28;20232;-76
2024/01/18 10:56:07;;;;;;;0.13;0.13;;;9.10;99.90;13.20;100013.00;;;;5047503;28;20186;-76
2024/01/18 10:58:35;;;;;;;0.10;0.10;;;9.40;99.90;12.70;100006.00;;;;5045906;28;20185;-76
2024/01/18 11:01:03;;;;;;;0.33;0.33;;;9.50;99.90;12.80;100002.00;;;;5045952;28;20561;-74
2024/01/18 11:03:40;;;;;;;0.20;0.20;;;9.50;99.90;13.20;100006.00;;;;5049246;28;20652;-74
2024/01/18 11:07:02;;;;;;;0.20;0.20;;;9.60;99.90;12.40;100031.00;;;;5034198;28;20271;-74
2024/01/18 11:09:34;;;;;;;0.10;0.10;;;9.40;99.90;12.90;100035.00;;;;5026566;28;20305;-74
2024/01/18 11:12:03;;;;;;;0.10;0.10;;;9.40;99.90;12.90;99998.00;;;;5029223;28;20212;-74
2024/01/18 11:14:30;;;;;;;0.10;0.10;;;9.40;99.90;13.50;100022.00;;;;5046425;28;20189;-71
2024/01/18 11:17:16;;;;;;;0.10;0.10;;;9.70;99.90;13.60;100029.00;;;;5041666;28;21226;-71
2024/01/18 11:19:44;;;;;;;0.17;0.17;;;9.90;99.90;12.30;100056.00;;;;5039659;28;20209;-72
2024/01/18 11:22:27;;;;;;;0.10;0.10;;;9.50;99.90;12.90;100068.00;;;;5047224;28;20186;-72
2024/01/18 11:25:03;;;;;;;0.10;0.10;;;9.50;99.90;13.10;100060.00;;;;5047597;28;20941;-72
2024/01/18 11:27:36;;;;;;;0.37;0.37;;;9.70;99.90;13.00;100067.00;;;;5044991;28;20687;-71
2024/01/18 11:30:03;;;;;;;2.00;0.20;;;9.90;99.90;13.00;100050.00;;;;5046089;28;20201;-71
2024/01/18 11:32:29;;;;;;;0.10;0.10;;;9.80;99.90;12.60;100070.00;;;;5045966;28;20226;-72
2024/01/18 11:35:35;;;;;;;0.10;0.10;;;9.60;99.90;12.90;100065.00;;;;5031170;28;20249;-72
2024/01/18 11:38:28;;;;;;;0.10;0.10;;;9.50;99.90;12.60;100100.00;;;;5047039;28;20766;-72
2024/01/18 11:41:12;;;;;;;0.10;0.10;;;9.30;99.90;12.50;100044.00;;;;5038107;28;20688;-72
2024/01/18 11:44:09;;;;;;;0.10;0.10;;;9.00;99.90;11.60;100138.00;;;;5039669;28;20219;-72
2024/01/18 11:46:54;;;;;;;0.20;0.20;;;8.50;99.90;11.50;100147.00;;;;5032462;28;20183;-71
2024/01/18 11:49:20;;;;;;;0.27;0.27;;;8.30;99.90;10.50;100168.00;;;;5034109;28;20541;-72
2024/01/18 11:52:09;;;;;;;0.70;0.70;;;7.70;99.90;10.60;100186.00;;;;5032281;28;20290;-72
2024/01/18 11:54:59;;;;;;;0.13;0.13;;;7.30;99.90;10.60;100183.00;;;;5036319;28;20186;-72
2024/01/18 11:57:26;;;;;;;3.07;1.00;;;7.30;99.90;10.50;100180.00;;;;5030321;28;20187;-72
2024/01/18 12:00:03;;;;;;;0.20;0.20;;;7.40;99.90;9.40;100225.00;;;;5016515;28;20191;-72
2024/01/18 12:02:43;;;;;;;0.10;0.10;;;7.00;99.90;9.60;100210.00;;;;5034608;28;20649;-72
2024/01/18 12:05:40;;;;;;;0.20;0.20;;;6.70;99.90;10.70;100200.00;;;;5033450;28;20511;-72
2024/01/18 12:08:08;;;;;;;0.20;0.20;;;7.20;99.90;11.10;100186.00;;;;5023682;28;20196;-72
2024/01/18 12:10:44;;;;;;;0.93;0.93;;;7.60;99.90;11.40;100134.00;;;;5032421;28;20224;-73
2024/01/18 12:13:11;;;;;;;0.40;0.40;;;7.90;99.90;9.30;100220.00;;;;5027239;28;20205;-72
2024/01/18 12:16:21;;;;;;;0.47;0.47;;;7.30;99.90;9.00;100235.00;;;;5034316;28;20223;-72
2024/01/18 12:19:37;;;;;;;0.43;0.43;;;6.70;99.90;8.40;100228.00;;;;5017804;28;20197;-72
2024/01/18 12:22:11;;;;;;;0.20;0.20;;;6.20;99.90;7.60;100213.00;;;;5016708;28;20643;-72
2024/01/18 12:24:57;;;;;;;0.40;0.40;;;5.60;99.90;8.10;100187.00;;;;5031096;28;20196;-70
2024/01/18 12:27:25;;;;;;;2.10;1.10;;;5.70;99.90;8.10;100157.00;;;;5032355;28;20190;-70
2024/01/18 12:29:54;;;;;;;0.20;0.20;;;5.70;99.90;8.50;100127.00;;;;5029746;28;20276;-70
2024/01/18 12:32:48;;;;;;;0.10;0.10;;;5.80;99.90;10.30;100125.00;;;;5026439;28;20736;-70
2024/01/18 12:35:16;;;;;;;0.30;0.30;;;6.70;99.90;9.50;100172.00;;;;5029934;28;20205;-70
2024/01/18 12:37:42;;;;;;;0.10;0.10;;;6.80;99.90;10.20;100176.00;;;;5029348;28;20974;-70
2024/01/18 12:40:19;;;;;;;0.20;0.20;;;6.90;99.90;10.70;100173.00;;;;5033172;28;20196;-70
2024/01/18 12:43:02;;;;;;;0.20;0.20;;;7.40;99.90;11.60;100189.00;;;;5025131;28;20225;-71
2024/01/18 12:45:28;;;;;;;0.67;0.67;;;7.90;99.90;12.00;100197.00;;;;5033227;28;20645;-71
2024/01/18 12:47:57;;;;;;;0.10;0.10;;;8.30;99.90;11.80;100195.00;;;;5014600;28;20225;-71
2024/01/18 12:50:43;;;;;;;1.17;1.10;;;8.40;99.90;10.10;100228.00;;;;5032244;28;20233;-70
2024/01/18 12:53:27;;;;;;;0.17;0.17;;;7.80;99.90;8.90;100241.00;;;;5026746;28;20222;-70
2024/01/18 12:55:53;;;;;;;0.10;0.10;;;6.90;99.90;10.20;100233.00;;;;5032628;28;20175;-70
2024/01/18 12:58:19;;;;;;;0.53;0.53;;;7.10;99.90;11.10;100183.00;;;;5024859;28;20204;-71
2024/01/18 13:00:53;;;;;;;0.10;0.10;;;7.70;99.90;11.30;100213.00;;;;5042831;28;20186;-70
2024/01/18 13:03:22;;;;;;;0.37;0.37;;;8.00;99.90;11.40;100241.00;;;;5022649;28;20198;-70
2024/01/18 13:05:48;;;;;;;0.10;0.10;;;8.30;99.90;11.50;100247.00;;;;5033345;28;20214;-70
2024/01/18 13:08:18;;;;;;;0.30;0.30;;;8.20;99.90;11.20;100264.00;;;;5032521;28;20191;-71
2024/01/18 13:10:46;;;;;;;0.10;0.10;;;8.10;99.90;11.20;100258.00;;;;5032599;28;20183;-71
2024/01/18 13:13:18;;;;;;;0.20;0.20;;;7.90;99.90;10.70;100267.00;;;;5032469;28;20224;-71
2024/01/18 13:15:52;;;;;;;1.90;1.00;;;7.60;99.90;9.00;100221.00;;;;5029436;28;20218;-71
2024/01/18 13:18:31;;;;;;;0.47;0.43;;;6.80;99.90;7.30;100197.00;;;;5033545;28;20200;-71
2024/01/18 13:21:06;;;;;;;1.80;1.70;;;5.60;99.90;7.30;100171.00;;;;5028184;28;20183;-71
2024/01/18 13:23:40;;;;;;;0.53;0.53;;;5.10;99.90;7.90;100146.00;;;;5032060;28;20220;-71
2024/01/18 13:26:15;;;;;;;0.30;0.30;;;5.30;99.90;6.70;100137.00;;;;5030774;28;20236;-71
2024/01/18 13:28:42;;;;;;;0.30;0.30;;;4.90;99.90;6.60;100131.00;;;;5030592;28;20221;-71
2024/01/18 13:31:09;;;;;;;8.17;5.70;;;4.50;99.90;7.40;100128.00;;;;5030609;28;20608;-71
2024/01/18 13:33:41;;;;;;;0.40;0.40;;;4.80;99.90;7.90;100136.00;;;;5030991;28;20191;-72
2024/01/18 13:36:13;;;;;;;0.33;0.33;;;5.10;99.90;6.90;100141.00;;;;5031620;28;20188;-71
2024/01/18 13:38:47;;;;;;;0.70;0.70;;;5.00;99.90;5.70;100119.00;;;;5030505;28;20236;-71
2024/01/18 13:41:13;;;;;;;0.30;0.30;;;4.30;99.90;5.50;100128.00;;;;5028672;28;20178;-71
2024/01/18 13:43:39;;;;;;;0.30;0.30;;;3.90;99.90;4.90;100109.00;;;;5031039;28;20194;-72
2024/01/18 13:46:05;;;;;;;0.63;0.63;;;3.70;99.90;6.10;100130.00;;;;5013476;28;20192;-72
2024/01/18 13:48:38;;;;;;;0.40;0.40;;;3.90;99.90;5.90;100141.00;;;;5048911;28;20179;-71
2024/01/18 13:51:10;;;;;;;0.80;0.80;;;4.10;99.90;6.10;100130.00;;;;5028272;28;20670;-71
2024/01/18 13:53:41;;;;;;;1.50;0.73;;;4.10;99.90;6.10;100143.00;;;;5026006;28;20187;-72
2024/01/18 13:56:19;;;;;;;0.20;0.20;;;4.30;99.90;5.80;100134.00;;;;5018180;28;20182;-71
2024/01/18 13:58:53;;;;;;;0.40;0.40;;;4.10;99.90;5.60;100077.00;;;;5031605;28;20219;-71
2024/01/18 14:01:22;;;;;;;0.70;0.70;;;4.00;99.90;5.20;100135.00;;;;5031721;28;20548;-72
2024/01/18 14:03:56;;;;;;;0.40;0.40;;;3.90;99.90;4.90;100087.00;;;;5031992;28;20222;-71
2024/01/18 14:06:30;;;;;;;0.50;0.50;;;3.80;99.90;5.70;100140.00;;;;5025743;28;20519;-72
2024/01/18 14:08:59;;;;;;;0.60;0.40;;;4.00;99.90;5.50;100156.00;;;;5043475;28;20183;-72
2024/01/18 14:11:25;;;;;;;0.27;0.27;;;4.10;99.90;5.90;100172.00;;;;5029793;28;20579;-72
2024/01/18 14:13:56;;;;;;;0.30;0.30;;;4.40;99.90;6.40;100182.00;;;;5027828;28;20196;-71
2024/01/18 14:16:22;;;;;;;0.20;0.20;;;4.40;99.90;7.00;100193.00;;;;5022914;28;20543;-72
2024/01/18 14:18:48;;;;;;;0.60;0.60;;;4.80;99.90;6.00;100182.00;;;;5028306;28;20189;-72
2024/01/18 14:21:14;;;;;;;4.33;1.00;;;4.60;99.90;5.40;100171.00;;;;5013522;28;20264;-71
2024/01/18 14:23:40;;;;;;;0.40;0.40;;;4.30;99.90;6.60;100186.00;;;;5013585;28;20191;-72
2024/01/18 14:26:06;;;;;;;0.43;0.43;;;4.60;99.90;6.70;100157.00;;;;5043847;28;20191;-72
2024/01/18 14:28:37;;;;;;;1.17;0.50;;;4.70;99.90;6.10;100206.00;;;;5031199;28;20187;-71
2024/01/18 14:31:09;;;;;;;0.47;0.47;;;4.60;99.90;6.50;100208.00;;;;5032769;28;20207;-71
2024/01/18 14:33:43;;;;;;;1.80;0.97;;;4.50;99.90;6.50;100232.00;;;;5028616;28;20263;-72
2024/01/18 14:36:09;;;;;;;0.30;0.30;;;4.40;99.90;7.10;100225.00;;;;5029339;28;20190;-72
2024/01/18 14:38:41;;;;;;;0.70;0.57;;;4.60;99.90;6.30;100219.00;;;;5030234;28;20199;-72
2024/01/18 14:41:07;;;;;;;1.27;1.00;;;4.40;99.90;5.90;100233.00;;;;5029054;28;20548;-72
2024/01/18 14:43:41;;;;;;;2.10;1.37;;;4.10;99.90;5.60;100226.00;;;;5029175;28;20207;-72
2024/01/18 14:46:07;;;;;;;1.27;1.17;;;3.90;99.90;5.70;100240.00;;;;5013870;28;20190;-72
2024/01/18 14:48:39;;;;;;;0.47;0.47;;;3.90;99.90;6.00;100230.00;;;;5031151;28;20191;-72
2024/01/18 14:51:15;;;;;;;1.50;1.40;;;3.90;99.90;6.40;100239.00;;;;5031285;28;20681;-72
2024/01/18 14:53:42;;;;;;;0.30;0.30;;;4.10;99.90;7.00;100252.00;;;;5030656;28;20273;-72
2024/01/18 14:56:16;;;;;;;0.50;0.50;;;4.40;99.90;6.80;100250.00;;;;5029588;28;20276;-72
2024/01/18 14:58:48;;;;;;;0.30;0.30;;;4.40;99.90;7.70;100265.00;;;;5019746;28;20187;-72
2024/01/18 15:01:19;;;;;;;0.53;0.53;;;4.80;99.90;6.60;100269.00;;;;5027707;28;20641;-72
2024/01/18 15:03:50;;;;;;;0.47;0.47;;;4.60;99.90;6.10;100272.00;;;;5013754;28;20190;-69
2024/01/18 15:06:17;;;;;;;0.53;0.53;;;4.10;99.90;5.30;100269.00;;;;5030445;28;20177;-69
2024/01/18 15:08:45;;;;;;;1.03;1.03;;;3.80;99.90;5.50;100274.00;;;;5030666;28;20303;-72
2024/01/18 15:11:15;;;;;;;0.30;0.30;;;3.80;99.90;6.70;100277.00;;;;5029013;28;20190;-72
2024/01/18 15:13:41;;;;;;;4.00;2.40;;;4.10;99.90;6.80;100298.00;;;;5030292;28;20672;-72
2024/01/18 15:16:07;;;;;;;0.30;0.30;;;4.30;99.90;7.40;100316.00;;;;5027898;28;20598;-71
2024/01/18 15:18:33;;;;;;;0.30;0.30;;;4.60;99.90;7.50;100333.00;;;;5033178;28;20180;-72
2024/01/18 15:20:59;;;;;;;0.47;0.47;;;4.70;99.90;8.00;100340.00;;;;5034544;28;20256;-72
2024/01/18 15:23:27;;;;;;;0.50;0.50;;;4.90;99.90;7.60;100343.00;;;;5033399;28;20553;-71
2024/01/18 15:25:53;;;;;;;1.27;1.23;;;4.90;99.90;7.20;100285.00;;;;5034969;28;20192;-72
2024/01/18 15:28:19;;;;;;;0.70;0.70;;;4.80;99.90;6.90;100345.00;;;;5035443;28;20192;-71
2024/01/18 15:30:45;;;;;;;0.50;0.50;;;4.60;99.90;6.10;100344.00;;;;5029098;28;20184;-72
2024/01/18 15:33:14;;;;;;;0.40;0.40;;;4.30;99.90;6.70;100341.00;;;;5022446;28;20213;-71
2024/01/18 15:35:40;;;;;;;10.97;1.47;;;4.20;99.90;5.80;100317.00;;;;5013613;28;20180;-72
2024/01/18 15:38:06;;;;;;;0.40;0.40;;;3.90;99.90;5.80;100344.00;;;;5030953;28;20196;-71
2024/01/18 15:40:32;;;;;;;1.27;1.03;;;3.80;99.90;5.70;100354.00;;;;5023934;28;20283;-71
2024/01/18 15:42:58;;;;;;;0.80;0.80;;;3.60;99.90;5.90;100337.00;;;;5032774;28;20638;-72
2024/01/18 15:45:24;;;;;;;2.13;1.93;;;3.60;99.90;5.10;100335.00;;;;5033133;28;20191;-72
2024/01/18 15:47:51;;;;;;;0.50;0.50;;;3.40;99.90;5.10;100357.00;;;;5027626;28;20650;-72
2024/01/18 15:50:17;;;;;;;0.47;0.47;;;3.30;99.90;5.70;100382.00;;;;5030618;28;20188;-71
2024/01/18 15:52:43;;;;;;;0.30;0.30;;;3.50;99.90;6.50;100392.00;;;;5057300;28;20298;-72
2024/01/18 15:55:09;;;;;;;0.40;0.40;;;3.80;99.90;6.10;100379.00;;;;5035043;28;20551;-72
2024/01/18 15:57:41;;;;;;;1.20;1.10;;;3.70;99.90;5.50;100395.00;;;;5033961;28;20187;-72
2024/01/18 16:00:13;;;;;;;0.50;0.50;;;3.60;99.90;5.30;100402.00;;;;5017243;28;20182;-72
2024/01/18 16:02:42;;;;;;;0.93;0.93;;;3.40;99.90;5.60;100379.00;;;;5032451;28;20190;-72
2024/01/18 16:05:10;;;;;;;0.83;0.83;;;3.40;99.90;5.90;100429.00;;;;5034949;28;20748;-72
2024/01/18 16:07:44;;;;;;;0.30;0.30;;;3.50;99.90;6.00;100427.00;;;;5034014;28;20218;-71
2024/01/18 16:10:10;;;;;;;0.50;0.50;;;3.70;99.90;6.10;100437.00;;;;5031458;28;20610;-71
2024/01/18 16:12:40;;;;;;;0.40;0.40;;;3.70;99.90;6.00;100444.00;;;;5032802;28;20297;-71
2024/01/18 16:15:14;;;;;;;3.70;1.03;;;3.60;99.90;6.20;100442.00;;;;5039752;28;20183;-71
2024/01/18 16:17:40;;;;;;;0.57;0.57;;;3.50;99.90;6.40;100458.00;;;;5032933;28;20240;-72
2024/01/18 16:20:19;;;;;;;0.60;0.50;;;3.70;99.90;5.30;100459.00;;;;5031969;28;20278;-72
2024/01/18 16:22:51;;;;;;;2.40;1.87;;;3.50;99.90;5.90;100468.00;;;;5036615;28;20186;-71
2024/01/18 16:25:28;;;;;;;0.30;0.30;;;3.50;99.90;5.50;100468.00;;;;5032643;28;20320;-71
2024/01/18 16:27:54;;;;;;;0.30;0.30;;;3.50;99.90;5.30;100460.00;;;;5029877;28;20183;-71
2024/01/18 16:30:25;;;;;;;0.70;0.70;;;3.30;99.90;5.30;100474.00;;;;5031315;28;20548;-71
2024/01/18 16:32:52;;;;;;;1.90;1.80;;;3.40;99.90;5.80;100465.00;;;;5033508;28;20754;-71
2024/01/18 16:35:29;;;;;;;0.40;0.40;;;3.40;99.90;5.50;100477.00;;;;5059482;28;20187;-71
2024/01/18 16:37:59;;;;;;;1.70;1.60;;;3.50;99.90;5.10;100475.00;;;;5024769;28;20194;-72
2024/01/18 16:40:39;;;;;;;0.60;0.60;;;3.20;99.90;4.80;100481.00;;;;5018991;28;20193;-71
2024/01/18 16:43:05;;;;;;;0.60;0.60;;;3.10;99.90;5.10;100438.00;;;;5032131;28;20190;-71
2024/01/18 16:45:37;;;;;;;2.37;1.67;;;3.20;99.90;5.00;100470.00;;;;5029461;28;20214;-71
2024/01/18 16:48:37;;;;;;;2.40;2.20;;;3.00;99.90;5.00;100493.00;;;;5029713;28;20269;-71
2024/01/18 16:51:06;;;;;;;0.30;0.30;;;3.10;99.90;4.70;100439.00;;;;5023322;28;20182;-71
2024/01/18 16:53:55;;;;;;;2.40;2.07;;;3.00;99.90;5.10;100503.00;;;;5042810;28;20206;-71
2024/01/18 16:56:24;;;;;;;1.60;1.50;;;3.00;99.90;5.60;100514.00;;;;5042751;28;20191;-71
2024/01/18 16:59:20;;;;;;;1.17;0.80;;;3.20;99.90;5.20;100496.00;;;;5031714;28;20186;-71
2024/01/18 17:01:46;;;;;;;1.27;1.00;;;3.20;99.90;5.10;100517.00;;;;5027315;28;20198;-71
2024/01/18 17:04:20;;;;;;;0.77;0.77;;;3.10;99.90;5.70;100536.00;;;;5030649;28;20190;-71
2024/01/18 17:06:52;;;;;;;0.80;0.80;;;3.20;99.90;5.60;100538.00;;;;5026984;28;20265;-71
2024/01/18 17:09:24;;;;;;;3.33;3.03;;;3.20;99.90;5.10;100472.00;;;;5032838;28;20190;-71
2024/01/18 17:11:56;;;;;;;2.10;1.57;;;3.00;99.90;4.80;100520.00;;;;5029107;28;20206;-71
2024/01/18 17:14:23;;;;;;;2.03;1.83;;;2.90;99.90;4.50;100535.00;;;;5030466;28;20263;-71
2024/01/18 17:16:57;;;;;;;0.53;0.53;;;2.80;99.90;4.90;100552.00;;;;5031935;28;20205;-71
2024/01/18 17:19:23;;;;;;;0.73;0.73;;;2.90;99.90;5.60;100561.00;;;;5031818;28;20178;-71
2024/01/18 17:21:58;;;;;;;1.97;1.87;;;3.00;99.90;4.90;100559.00;;;;5030385;28;20197;-71
2024/01/18 17:24:27;;;;;;;0.80;0.80;;;3.00;99.90;4.60;100541.00;;;;5018367;28;20170;-71
2024/01/18 17:26:59;;;;;;;1.23;1.23;;;2.70;99.90;4.80;100551.00;;;;5031071;28;20183;-70
2024/01/18 17:29:48;;;;;;;0.83;0.83;;;2.80;99.90;5.10;100562.00;;;;5048944;28;20537;-70
2024/01/18 17:32:43;;;;;;;0.80;0.80;;;2.90;99.90;4.90;100513.00;;;;5030364;28;20580;-70
2024/01/18 17:35:51;;;;;;;0.50;0.50;;;2.80;99.90;5.00;100574.00;;;;5030349;28;20232;-71
2024/01/18 17:38:24;;;;;;;0.83;0.80;;;2.80;99.90;4.60;100540.00;;;;5032553;28;20193;-71
2024/01/18 17:41:16;;;;;;;1.57;1.57;;;2.70;99.90;5.10;100556.00;;;;5048290;28;20248;-71
2024/01/18 17:43:42;;;;;;;4.13;1.27;;;2.80;99.90;4.90;100589.00;;;;5028805;28;20723;-71
2024/01/18 17:46:10;;;;;;;1.03;1.03;;;2.80;99.90;4.50;100586.00;;;;5027496;28;20193;-71
2024/01/18 17:49:13;;;;;;;2.30;2.10;;;2.70;99.90;4.80;100594.00;;;;5023004;28;20244;-71
2024/01/18 17:52:06;;;;;;;1.27;1.27;;;2.70;99.90;4.90;100535.00;;;;5026014;28;20293;-73
2024/01/18 17:55:18;;;;;;;1.40;1.30;;;2.70;99.90;4.90;100599.00;;;;5025544;28;20714;-71
2024/01/18 17:57:53;;;;;;;1.63;1.60;;;2.60;99.90;4.80;100545.00;;;;5018657;28;20182;-71
2024/01/18 18:00:27;;;;;;;0.30;0.30;;;2.70;99.90;4.90;100609.00;;;;5043432;28;20247;-72
2024/01/18 18:02:54;;;;;;;0.60;0.60;;;2.70;99.90;4.80;100623.00;;;;5014149;28;20549;-75
2024/01/18 18:05:46;;;;;;;1.70;1.60;;;2.70;99.90;4.50;100619.00;;;;5046611;28;20187;-75
2024/01/18 18:08:33;;;;;;;1.60;1.50;;;2.50;99.90;4.40;100623.00;;;;5023317;28;20179;-74
2024/01/18 18:11:59;;;;;;;1.10;1.10;;;2.50;99.90;4.50;100613.00;;;;5026527;28;20183;-73
2024/01/18 18:14:45;;;;;;;0.97;0.93;;;2.50;99.90;4.10;100612.00;;;;5029494;28;20195;-74
2024/01/18 18:17:11;;;;;;;0.73;0.63;;;2.30;99.90;3.90;100629.00;;;;5030867;28;20315;-74
2024/01/18 18:19:58;;;;;;;2.63;2.43;;;2.20;99.90;4.40;100629.00;;;;5031342;28;20193;-74
2024/01/18 18:22:27;;;;;;;0.70;0.70;;;2.30;99.90;4.10;100617.00;;;;5037377;28;20190;-74
2024/01/18 18:25:14;;;;;;;1.17;1.07;;;2.20;99.90;4.10;100608.00;;;;5026448;28;20187;-74
2024/01/18 18:28:07;;;;;;;0.70;0.70;;;2.20;99.90;4.10;100639.00;;;;5024785;28;20210;-74
2024/01/18 18:31:08;;;;;;;1.80;0.93;;;2.20;99.90;4.40;100647.00;;;;5031492;28;20202;-74
2024/01/18 18:33:39;;;;;;;0.60;0.60;;;2.20;99.90;4.80;100648.00;;;;5029276;28;20203;-74
2024/01/18 18:36:43;;;;;;;0.30;0.30;;;2.50;99.90;4.40;100664.00;;;;5021850;28;20190;-75
2024/01/18 18:39:42;;;;;;;2.13;1.90;;;2.40;99.90;5.00;100672.00;;;;5048640;28;20194;-75
2024/01/18 18:42:26;;;;;;;1.73;1.63;;;2.60;99.90;4.30;100681.00;;;;5042104;28;20190;-74